createdAt,value
2018-04-04T00:00:22.298Z,972.01
2018-04-04T00:01:22.284Z,971.98
2018-04-04T00:02:22.231Z,971.99
2018-04-04T00:03:22.244Z,971.93
2018-04-04T00:04:22.158Z,971.95
2018-04-04T00:05:22.111Z,971.97
2018-04-04T00:06:22.088Z,972.01
2018-04-04T00:07:22.039Z,971.97
2018-04-04T00:08:21.982Z,971.96
2018-04-04T00:09:21.982Z,971.95
2018-04-04T00:10:21.901Z,971.96
2018-04-04T00:11:21.900Z,971.92
2018-04-04T00:12:21.827Z,971.91
2018-04-04T00:13:21.799Z,971.88
2018-04-04T00:14:22.631Z,971.89
2018-04-04T00:15:21.713Z,971.91
2018-04-04T00:16:21.685Z,971.87
2018-04-04T00:17:21.625Z,971.88
2018-04-04T00:18:21.611Z,971.86
2018-04-04T00:19:21.578Z,971.88
2018-04-04T00:20:21.513Z,971.90
2018-04-04T00:21:21.508Z,971.91
2018-04-04T00:22:21.434Z,971.94
2018-04-04T00:23:21.409Z,971.91
2018-04-04T00:24:21.360Z,971.91
2018-04-04T00:25:21.288Z,971.91
2018-04-04T00:26:21.306Z,971.90
2018-04-04T00:27:21.248Z,971.85
2018-04-04T00:28:21.175Z,971.84
2018-04-04T00:29:21.167Z,971.87
2018-04-04T00:30:21.107Z,971.91
2018-04-04T00:31:21.107Z,971.92
2018-04-04T00:32:21.135Z,971.91
2018-04-04T00:33:20.983Z,971.95
2018-04-04T00:34:20.962Z,971.97
2018-04-04T00:35:20.889Z,972.01
2018-04-04T00:36:20.842Z,972.01
2018-04-04T00:37:20.815Z,972.01
2018-04-04T00:38:20.796Z,972.04
2018-04-04T00:39:20.744Z,972.02
2018-04-04T00:40:21.633Z,972.05
2018-04-04T00:41:20.657Z,972.07
2018-04-04T00:42:20.686Z,972.07
2018-04-04T00:43:20.565Z,972.05
2018-04-04T00:44:20.551Z,972.07
2018-04-04T00:45:20.488Z,972.10
2018-04-04T00:46:20.455Z,972.14
2018-04-04T00:47:20.398Z,972.15
2018-04-04T00:48:21.134Z,972.16
2018-04-04T00:49:20.317Z,972.14
2018-04-04T00:50:20.294Z,972.15
2018-04-04T00:51:20.252Z,972.16
2018-04-04T00:52:20.226Z,972.17
2018-04-04T00:53:20.172Z,972.16
2018-04-04T00:54:20.135Z,972.13
2018-04-04T00:55:20.113Z,972.16
2018-04-04T00:56:20.053Z,972.11
2018-04-04T00:57:20.048Z,972.09
2018-04-04T00:58:19.989Z,972.03
2018-04-04T00:59:19.941Z,971.99
2018-04-04T01:00:19.914Z,972.00
2018-04-04T01:01:19.856Z,971.98
2018-04-04T01:02:19.804Z,971.98
2018-04-04T01:03:19.763Z,971.97
2018-04-04T01:04:19.708Z,971.97
2018-04-04T01:05:19.699Z,972.04
2018-04-04T01:06:19.646Z,972.04
2018-04-04T01:07:19.608Z,972.09
2018-04-04T01:08:19.585Z,972.06
2018-04-04T01:09:19.506Z,972.07
2018-04-04T01:10:19.492Z,972.08
2018-04-04T01:11:19.439Z,972.05
2018-04-04T01:12:19.412Z,972.02
2018-04-04T01:13:19.366Z,972.03
2018-04-04T01:14:19.315Z,972.05
2018-04-04T01:15:19.328Z,972.05
2018-04-04T01:16:19.245Z,972.03
2018-04-04T01:17:19.231Z,972.05
2018-04-04T01:18:19.157Z,972.03
2018-04-04T01:19:19.136Z,972.04
2018-04-04T01:20:19.084Z,972.03
2018-04-04T01:21:19.027Z,972.07
2018-04-04T01:22:19.119Z,972.06
2018-04-04T01:23:18.964Z,972.10
2018-04-04T01:24:18.901Z,972.07
2018-04-04T01:25:18.875Z,972.06
2018-04-04T01:26:18.812Z,972.08
2018-04-04T01:27:18.830Z,972.08
2018-04-04T01:28:18.765Z,972.03
2018-04-04T01:29:18.738Z,972.12
2018-04-04T01:30:18.668Z,972.11
2018-04-04T01:31:18.630Z,972.12
2018-04-04T01:32:18.582Z,972.16
2018-04-04T01:33:18.533Z,972.19
2018-04-04T01:34:18.487Z,972.17
2018-04-04T01:35:18.452Z,972.22
2018-04-04T01:36:18.402Z,972.19
2018-04-04T01:39:13.667Z,972.27
2018-04-04T01:40:13.148Z,972.22
2018-04-04T01:42:08.546Z,972.27
2018-04-04T01:43:06.668Z,972.22
2018-04-04T01:45:01.158Z,972.27
2018-04-04T01:46:00.845Z,972.26
2018-04-04T01:47:54.375Z,972.31
2018-04-04T01:48:53.630Z,972.35
2018-04-04T01:51:03.094Z,972.35
2018-04-04T01:52:01.757Z,972.30
2018-04-04T01:53:55.537Z,972.41
2018-04-04T01:54:54.775Z,972.38
2018-04-04T01:56:49.063Z,972.35
2018-04-04T01:57:47.932Z,972.40
2018-04-04T01:58:47.520Z,972.40
2018-04-04T01:59:47.556Z,972.49
2018-04-04T02:00:48.310Z,972.45
2018-04-04T02:01:47.312Z,972.45
2018-04-04T02:02:47.263Z,972.42
2018-04-04T02:03:47.228Z,972.41
2018-04-04T02:04:47.163Z,972.43
2018-04-04T02:05:47.166Z,972.43
2018-04-04T02:06:47.098Z,972.41
2018-04-04T02:07:47.017Z,972.42
2018-04-04T02:08:47.010Z,972.47
2018-04-04T02:09:46.950Z,972.42
2018-04-04T02:10:46.912Z,972.45
2018-04-04T02:11:46.848Z,972.46
2018-04-04T02:12:46.860Z,972.44
2018-04-04T02:13:46.814Z,972.41
2018-04-04T02:14:46.788Z,972.41
2018-04-04T02:15:46.840Z,972.45
2018-04-04T02:16:46.699Z,972.45
2018-04-04T02:17:46.640Z,972.46
2018-04-04T02:18:46.601Z,972.41
2018-04-04T02:19:46.532Z,972.39
2018-04-04T02:20:46.508Z,972.32
2018-04-04T02:21:47.277Z,972.28
2018-04-04T02:22:46.396Z,972.32
2018-04-04T02:23:46.371Z,972.32
2018-04-04T02:24:47.276Z,972.28
2018-04-04T02:25:46.292Z,972.27
2018-04-04T02:26:46.332Z,972.32
2018-04-04T02:27:46.218Z,972.33
2018-04-04T02:28:46.149Z,972.36
2018-04-04T02:29:46.150Z,972.33
2018-04-04T02:30:46.066Z,972.39
2018-04-04T02:31:46.068Z,972.40
2018-04-04T02:32:46.025Z,972.42
2018-04-04T02:33:45.956Z,972.43
2018-04-04T02:34:45.943Z,972.42
2018-04-04T02:35:45.878Z,972.42
2018-04-04T02:36:45.847Z,972.42
2018-04-04T02:37:45.789Z,972.42
2018-04-04T02:38:45.796Z,972.42
2018-04-04T02:39:45.714Z,972.41
2018-04-04T02:40:45.711Z,972.38
2018-04-04T02:41:45.657Z,972.38
2018-04-04T02:42:45.605Z,972.38
2018-04-04T02:43:45.595Z,972.39
2018-04-04T02:44:45.604Z,972.40
2018-04-04T02:45:45.488Z,972.38
2018-04-04T02:46:45.478Z,972.36
2018-04-04T02:47:45.406Z,972.38
2018-04-04T02:48:45.349Z,972.42
2018-04-04T02:49:45.313Z,972.42
2018-04-04T02:50:45.262Z,972.39
2018-04-04T02:51:45.231Z,972.44
2018-04-04T02:52:45.182Z,972.43
2018-04-04T02:53:45.186Z,972.40
2018-04-04T02:54:45.107Z,972.39
2018-04-04T02:55:45.085Z,972.43
2018-04-04T02:56:45.054Z,972.42
2018-04-04T02:57:44.998Z,972.40
2018-04-04T02:58:44.984Z,972.37
2018-04-04T02:59:44.930Z,972.40
2018-04-04T03:00:44.856Z,972.42
2018-04-04T03:01:44.815Z,972.41
2018-04-04T03:02:44.828Z,972.41
2018-04-04T03:03:44.748Z,972.40
2018-04-04T03:04:44.732Z,972.42
2018-04-04T03:05:44.682Z,972.44
2018-04-04T03:06:44.654Z,972.48
2018-04-04T03:07:44.586Z,972.45
2018-04-04T03:08:44.549Z,972.50
2018-04-04T03:09:44.508Z,972.47
2018-04-04T03:10:44.481Z,972.44
2018-04-04T03:11:44.416Z,972.45
2018-04-04T03:12:44.393Z,972.45
2018-04-04T03:13:44.337Z,972.46
2018-04-04T03:14:44.297Z,972.44
2018-04-04T03:15:44.291Z,972.47
2018-04-04T03:16:44.281Z,972.45
2018-04-04T03:17:44.199Z,972.45
2018-04-04T03:18:44.137Z,972.43
2018-04-04T03:19:44.167Z,972.43
2018-04-04T03:20:44.077Z,972.42
2018-04-04T03:21:44.045Z,972.42
2018-04-04T03:22:44.007Z,972.40
2018-04-04T03:23:43.971Z,972.43
2018-04-04T03:24:43.919Z,972.50
2018-04-04T03:25:43.863Z,972.48
2018-04-04T03:26:43.829Z,972.50
2018-04-04T03:27:43.807Z,972.43
2018-04-04T03:28:43.769Z,972.43
2018-04-04T03:29:43.697Z,972.48
2018-04-04T03:30:43.718Z,972.47
2018-04-04T03:31:43.628Z,972.51
2018-04-04T03:32:43.617Z,972.50
2018-04-04T03:33:43.553Z,972.49
2018-04-04T03:34:43.504Z,972.52
2018-04-04T03:35:43.498Z,972.51
2018-04-04T03:36:43.487Z,972.50
2018-04-04T03:37:43.403Z,972.48
2018-04-04T03:38:43.346Z,972.49
2018-04-04T03:39:43.326Z,972.45
2018-04-04T03:40:43.273Z,972.47
2018-04-04T03:41:43.286Z,972.50
2018-04-04T03:42:43.182Z,972.54
2018-04-04T03:43:43.182Z,972.49
2018-04-04T03:44:43.114Z,972.52
2018-04-04T03:45:43.082Z,972.52
2018-04-04T03:46:43.054Z,972.51
2018-04-04T03:47:43.003Z,972.61
2018-04-04T03:48:42.938Z,972.54
2018-04-04T03:49:42.906Z,972.56
2018-04-04T03:50:42.867Z,972.57
2018-04-04T03:51:42.862Z,972.55
2018-04-04T03:52:42.799Z,972.60
2018-04-04T03:53:42.822Z,972.56
2018-04-04T03:54:42.735Z,972.53
2018-04-04T03:55:42.679Z,972.55
2018-04-04T03:56:42.648Z,972.52
2018-04-04T03:57:42.589Z,972.51
2018-04-04T03:58:42.587Z,972.45
2018-04-04T03:59:42.544Z,972.49
2018-04-04T04:00:42.518Z,972.49
2018-04-04T04:01:42.438Z,972.50
2018-04-04T04:02:42.412Z,972.52
2018-04-04T04:03:42.414Z,972.53
2018-04-04T04:04:42.318Z,972.57
2018-04-04T04:05:42.300Z,972.56
2018-04-04T04:06:42.306Z,972.56
2018-04-04T04:07:42.198Z,972.58
2018-04-04T04:08:42.210Z,972.55
2018-04-04T04:09:42.137Z,972.54
2018-04-04T04:10:42.135Z,972.57
2018-04-04T04:11:42.071Z,972.57
2018-04-04T04:12:42.030Z,972.58
2018-04-04T04:13:41.976Z,972.60
2018-04-04T04:14:41.953Z,972.59
2018-04-04T04:15:41.916Z,972.54
2018-04-04T04:16:41.867Z,972.56
2018-04-04T04:17:41.859Z,972.54
2018-04-04T04:18:41.784Z,972.47
2018-04-04T04:19:41.784Z,972.46
2018-04-04T04:20:41.792Z,972.48
2018-04-04T04:21:41.654Z,972.53
2018-04-04T04:22:41.638Z,972.55
2018-04-04T04:23:41.590Z,972.55
2018-04-04T04:24:41.552Z,972.59
2018-04-04T04:25:42.299Z,972.61
2018-04-04T04:26:41.483Z,972.65
2018-04-04T04:27:41.476Z,972.66
2018-04-04T04:28:42.309Z,972.68
2018-04-04T04:29:41.400Z,972.64
2018-04-04T04:30:41.806Z,972.61
2018-04-04T04:31:41.279Z,972.63
2018-04-04T04:32:41.270Z,972.60
2018-04-04T04:33:41.208Z,972.63
2018-04-04T04:34:41.155Z,972.59
2018-04-04T04:35:41.142Z,972.57
2018-04-04T04:36:41.098Z,972.55
2018-04-04T04:37:41.061Z,972.52
2018-04-04T04:38:41.036Z,972.55
2018-04-04T04:39:41.005Z,972.53
2018-04-04T04:40:40.947Z,972.58
2018-04-04T04:41:40.908Z,972.60
2018-04-04T04:42:40.853Z,972.59
2018-04-04T04:43:40.833Z,972.61
2018-04-04T04:44:40.794Z,972.64
2018-04-04T04:45:40.751Z,972.64
2018-04-04T04:46:40.748Z,972.59
2018-04-04T04:47:40.694Z,972.57
2018-04-04T04:48:40.652Z,972.55
2018-04-04T04:49:40.604Z,972.55
2018-04-04T04:50:40.564Z,972.54
2018-04-04T04:51:40.547Z,972.52
2018-04-04T04:52:40.570Z,972.48
2018-04-04T04:53:40.476Z,972.46
2018-04-04T04:54:40.389Z,972.49
2018-04-04T04:55:41.309Z,972.48
2018-04-04T04:56:40.308Z,972.43
2018-04-04T04:57:40.267Z,972.46
2018-04-04T04:58:40.223Z,972.54
2018-04-04T04:59:40.203Z,972.60
2018-04-04T05:00:40.198Z,972.54
2018-04-04T05:01:40.171Z,972.58
2018-04-04T05:02:40.147Z,972.63
2018-04-04T05:03:40.056Z,972.65
2018-04-04T05:04:40.037Z,972.71
2018-04-04T05:05:39.970Z,972.71
2018-04-04T05:06:39.931Z,972.70
2018-04-04T05:07:39.886Z,972.65
2018-04-04T05:08:39.879Z,972.69
2018-04-04T05:09:39.832Z,972.68
2018-04-04T05:10:39.799Z,972.69
2018-04-04T05:11:39.748Z,972.73
2018-04-04T05:12:39.705Z,972.73
2018-04-04T05:13:39.672Z,972.71
2018-04-04T05:14:39.626Z,972.74
2018-04-04T05:15:39.606Z,972.70
2018-04-04T05:16:39.614Z,972.75
2018-04-04T05:17:39.530Z,972.78
2018-04-04T05:18:39.473Z,972.78
2018-04-04T05:19:39.445Z,972.77
2018-04-04T05:20:39.420Z,972.81
2018-04-04T05:21:39.363Z,972.87
2018-04-04T05:22:39.298Z,972.84
2018-04-04T05:23:39.307Z,972.89
2018-04-04T05:24:39.262Z,972.85
2018-04-04T05:25:39.213Z,972.87
2018-04-04T05:26:39.174Z,972.91
2018-04-04T05:27:39.125Z,972.95
2018-04-04T05:28:39.106Z,972.93
2018-04-04T05:29:39.087Z,972.97
2018-04-04T05:30:39.020Z,973.02
2018-04-04T05:31:39.007Z,973.03
2018-04-04T05:32:38.987Z,972.97
2018-04-04T05:33:38.926Z,972.96
2018-04-04T05:34:38.894Z,972.99
2018-04-04T05:35:38.826Z,972.99
2018-04-04T05:36:38.799Z,972.97
2018-04-04T05:37:38.749Z,972.98
2018-04-04T05:38:38.748Z,972.98
2018-04-04T05:39:38.694Z,972.98
2018-04-04T05:40:38.623Z,972.99
2018-04-04T05:41:38.600Z,973.00
2018-04-04T05:42:38.580Z,973.05
2018-04-04T05:43:38.536Z,972.98
2018-04-04T05:44:38.488Z,973.02
2018-04-04T05:45:38.479Z,973.00
2018-04-04T05:46:38.490Z,973.03
2018-04-04T05:47:38.390Z,972.97
2018-04-04T05:48:38.335Z,972.94
2018-04-04T05:49:38.317Z,972.97
2018-04-04T05:50:38.322Z,972.98
2018-04-04T05:51:38.229Z,972.98
2018-04-04T05:52:38.193Z,972.95
2018-04-04T05:53:38.168Z,972.97
2018-04-04T05:54:38.128Z,972.97
2018-04-04T05:55:38.105Z,972.96
2018-04-04T05:56:38.081Z,972.91
2018-04-04T05:57:38.015Z,972.97
2018-04-04T05:58:37.960Z,972.95
2018-04-04T05:59:37.937Z,972.96
2018-04-04T06:00:37.942Z,972.97
2018-04-04T06:01:37.843Z,972.92
2018-04-04T06:02:37.824Z,972.99
2018-04-04T06:03:37.778Z,972.99
2018-04-04T06:04:37.759Z,973.02
2018-04-04T06:05:37.758Z,972.98
2018-04-04T06:06:37.690Z,972.98
2018-04-04T06:07:37.692Z,972.98
2018-04-04T06:08:37.609Z,973.00
2018-04-04T06:09:37.562Z,973.00
2018-04-04T06:10:37.548Z,973.01
2018-04-04T06:11:37.506Z,973.01
2018-04-04T06:12:37.515Z,973.03
2018-04-04T06:13:37.445Z,973.05
2018-04-04T06:14:37.386Z,973.09
2018-04-04T06:15:37.397Z,973.07
2018-04-04T06:16:37.318Z,973.11
2018-04-04T06:17:37.316Z,973.11
2018-04-04T06:18:37.267Z,973.06
2018-04-04T06:19:37.238Z,973.09
2018-04-04T06:20:37.208Z,973.12
2018-04-04T06:21:37.180Z,973.05
2018-04-04T06:22:37.145Z,973.06
2018-04-04T06:23:37.084Z,973.12
2018-04-04T06:24:37.081Z,973.14
2018-04-04T06:25:37.010Z,973.14
2018-04-04T06:26:36.977Z,973.17
2018-04-04T06:27:36.983Z,973.13
2018-04-04T06:28:36.906Z,973.14
2018-04-04T06:29:36.895Z,973.16
2018-04-04T06:30:36.840Z,973.19
2018-04-04T06:31:36.950Z,973.18
2018-04-04T06:32:36.872Z,973.23
2018-04-04T06:33:36.881Z,973.23
2018-04-04T06:34:36.836Z,973.20
2018-04-04T06:35:36.783Z,973.19
2018-04-04T06:36:36.716Z,973.20
2018-04-04T06:37:36.689Z,973.19
2018-04-04T06:38:36.665Z,973.16
2018-04-04T06:39:36.579Z,973.10
2018-04-04T06:40:36.513Z,973.10
2018-04-04T06:41:36.468Z,973.03
2018-04-04T06:42:36.448Z,972.96
2018-04-04T06:43:36.416Z,972.94
2018-04-04T06:44:36.421Z,972.98
2018-04-04T06:45:36.314Z,972.97
2018-04-04T06:46:36.297Z,972.97
2018-04-04T06:47:36.276Z,972.99
2018-04-04T06:48:36.239Z,972.94
2018-04-04T06:49:36.224Z,972.93
2018-04-04T06:50:36.152Z,972.96
2018-04-04T06:51:36.155Z,972.90
2018-04-04T06:52:36.090Z,972.88
2018-04-04T06:53:36.057Z,972.90
2018-04-04T06:54:36.018Z,972.96
2018-04-04T06:55:35.990Z,972.96
2018-04-04T06:56:35.971Z,972.99
2018-04-04T06:57:35.934Z,973.05
2018-04-04T06:58:35.901Z,973.05
2018-04-04T06:59:35.861Z,973.00
2018-04-04T07:00:35.816Z,973.01
2018-04-04T07:01:35.792Z,972.99
2018-04-04T07:02:35.810Z,972.96
2018-04-04T07:03:39.120Z,972.97
2018-04-04T07:04:35.688Z,972.94
2018-04-04T07:05:35.640Z,973.00
2018-04-04T07:06:35.765Z,973.00
2018-04-04T07:07:35.714Z,973.01
2018-04-04T07:08:35.574Z,973.03
2018-04-04T07:09:35.514Z,973.03
2018-04-04T07:10:35.480Z,973.05
2018-04-04T07:11:35.436Z,973.08
2018-04-04T07:12:35.429Z,973.09
2018-04-04T07:13:35.374Z,973.08
2018-04-04T07:14:35.347Z,973.08
2018-04-04T07:15:35.325Z,973.04
2018-04-04T07:16:35.317Z,973.09
2018-04-04T07:17:35.243Z,973.07
2018-04-04T07:18:35.240Z,973.12
2018-04-04T07:19:35.219Z,973.13
2018-04-04T07:20:35.182Z,973.21
2018-04-04T07:21:35.123Z,973.18
2018-04-04T07:22:35.094Z,973.18
2018-04-04T07:23:35.075Z,973.18
2018-04-04T07:24:35.047Z,973.16
2018-04-04T07:25:35.047Z,973.18
2018-04-04T07:26:34.987Z,973.21
2018-04-04T07:27:34.947Z,973.22
2018-04-04T07:28:34.971Z,973.23
2018-04-04T07:29:34.879Z,973.25
2018-04-04T07:30:34.880Z,973.25
2018-04-04T07:31:34.878Z,973.20
2018-04-04T07:32:34.817Z,973.19
2018-04-04T07:33:34.886Z,973.22
2018-04-04T07:34:34.783Z,973.22
2018-04-04T07:35:34.718Z,973.24
2018-04-04T07:36:34.715Z,973.22
2018-04-04T07:37:34.662Z,973.28
2018-04-04T07:38:34.642Z,973.30
2018-04-04T07:39:34.628Z,973.26
2018-04-04T07:40:34.602Z,973.26
2018-04-04T07:41:34.597Z,973.24
2018-04-04T07:42:34.580Z,973.27
2018-04-04T07:43:34.649Z,973.21
2018-04-04T07:44:34.518Z,973.23
2018-04-04T07:45:34.474Z,973.27
2018-04-04T07:46:34.444Z,973.26
2018-04-04T07:47:34.436Z,973.29
2018-04-04T07:48:34.396Z,973.30
2018-04-04T07:49:34.394Z,973.31
2018-04-04T07:50:34.338Z,973.26
2018-04-04T07:51:34.314Z,973.30
2018-04-04T07:52:34.328Z,973.28
2018-04-04T07:53:34.276Z,973.29
2018-04-04T07:54:34.228Z,973.30
2018-04-04T07:55:34.245Z,973.28
2018-04-04T07:56:34.174Z,973.35
2018-04-04T07:57:34.151Z,973.35
2018-04-04T07:58:34.194Z,973.33
2018-04-04T07:59:34.139Z,973.28
2018-04-04T08:00:34.083Z,973.28
2018-04-04T08:01:34.035Z,973.28
2018-04-04T08:02:34.009Z,973.29
2018-04-04T08:03:33.985Z,973.26
2018-04-04T08:04:33.969Z,973.23
2018-04-04T08:05:33.948Z,973.24
2018-04-04T08:06:33.908Z,973.23
2018-04-04T08:07:33.855Z,973.27
2018-04-04T08:08:33.844Z,973.27
2018-04-04T08:09:33.865Z,973.26
2018-04-04T08:10:33.857Z,973.29
2018-04-04T08:11:33.792Z,973.29
2018-04-04T08:12:33.737Z,973.29
2018-04-04T08:13:35.489Z,973.29
2018-04-04T08:14:33.685Z,973.33
2018-04-04T08:15:33.649Z,973.33
2018-04-04T08:16:33.609Z,973.34
2018-04-04T08:17:33.620Z,973.32
2018-04-04T08:18:33.580Z,973.29
2018-04-04T08:19:33.524Z,973.32
2018-04-04T08:20:33.506Z,973.31
2018-04-04T08:21:33.479Z,973.30
2018-04-04T08:22:33.445Z,973.31
2018-04-04T08:23:33.420Z,973.29
2018-04-04T08:24:33.388Z,973.35
2018-04-04T08:25:33.348Z,973.35
2018-04-04T08:26:33.330Z,973.39
2018-04-04T08:27:33.333Z,973.39
2018-04-04T08:28:33.289Z,973.40
2018-04-04T08:29:33.242Z,973.39
2018-04-04T08:30:33.226Z,973.40
2018-04-04T08:31:33.237Z,973.41
2018-04-04T08:32:33.157Z,973.42
2018-04-04T08:33:33.172Z,973.38
2018-04-04T08:34:33.164Z,973.41
2018-04-04T08:35:33.076Z,973.41
2018-04-04T08:36:33.140Z,973.44
2018-04-04T08:37:33.027Z,973.45
2018-04-04T08:38:33.041Z,973.44
2018-04-04T08:39:32.995Z,973.42
2018-04-04T08:40:32.998Z,973.42
2018-04-04T08:41:32.920Z,973.50
2018-04-04T08:42:32.888Z,973.45
2018-04-04T08:43:32.865Z,973.46
2018-04-04T08:44:32.822Z,973.46
2018-04-04T08:45:32.923Z,973.45
2018-04-04T08:46:32.767Z,973.42
2018-04-04T08:47:32.740Z,973.42
2018-04-04T08:48:32.742Z,973.40
2018-04-04T08:49:32.698Z,973.41
2018-04-04T08:50:32.715Z,973.40
2018-04-04T08:51:32.630Z,973.40
2018-04-04T08:52:32.649Z,973.40
2018-04-04T08:53:32.712Z,973.36
2018-04-04T08:54:32.535Z,973.35
2018-04-04T08:55:32.535Z,973.38
2018-04-04T08:56:32.588Z,973.32
2018-04-04T08:57:32.456Z,973.32
2018-04-04T08:58:32.463Z,973.31
2018-04-04T08:59:32.391Z,973.30
2018-04-04T09:00:32.419Z,973.33
2018-04-04T09:01:32.383Z,973.33
2018-04-04T09:02:32.330Z,973.37
2018-04-04T09:03:32.280Z,973.36
2018-04-04T09:04:32.283Z,973.37
2018-04-04T09:05:32.274Z,973.35
2018-04-04T09:06:32.211Z,973.34
2018-04-04T09:07:32.197Z,973.35
2018-04-04T09:08:32.150Z,973.34
2018-04-04T09:09:32.125Z,973.33
2018-04-04T09:10:32.089Z,973.34
2018-04-04T09:11:32.119Z,973.30
2018-04-04T09:12:32.065Z,973.28
2018-04-04T09:13:32.029Z,973.25
2018-04-04T09:14:32.009Z,973.25
2018-04-04T09:15:31.965Z,973.21
2018-04-04T09:16:31.967Z,973.24
2018-04-04T09:17:31.935Z,973.27
2018-04-04T09:18:31.932Z,973.25
2018-04-04T09:19:31.886Z,973.26
2018-04-04T09:20:31.870Z,973.30
2018-04-04T09:21:31.844Z,973.29
2018-04-04T09:22:31.812Z,973.23
2018-04-04T09:23:31.775Z,973.21
2018-04-04T09:24:31.836Z,973.17
2018-04-04T09:25:31.716Z,973.16
2018-04-04T09:26:31.687Z,973.12
2018-04-04T09:27:31.660Z,973.12
2018-04-04T09:28:31.661Z,973.17
2018-04-04T09:29:31.641Z,973.15
2018-04-04T09:30:31.592Z,973.11
2018-04-04T09:31:31.594Z,973.12
2018-04-04T09:32:31.576Z,973.12
2018-04-04T09:33:31.525Z,973.13
2018-04-04T09:34:31.514Z,973.11
2018-04-04T09:35:31.487Z,973.08
2018-04-04T09:36:31.469Z,973.10
2018-04-04T09:37:31.422Z,973.09
2018-04-04T09:38:31.431Z,973.16
2018-04-04T09:39:31.408Z,973.10
2018-04-04T09:40:31.354Z,973.13
2018-04-04T09:41:31.324Z,973.12
2018-04-04T09:42:31.353Z,973.09
2018-04-04T09:43:31.315Z,973.10
2018-04-04T09:44:31.420Z,973.08
2018-04-04T09:45:31.232Z,973.07
2018-04-04T09:46:31.220Z,973.11
2018-04-04T09:47:31.244Z,973.04
2018-04-04T09:48:31.195Z,973.04
2018-04-04T09:49:31.153Z,973.04
2018-04-04T09:50:31.173Z,973.04
2018-04-04T09:51:31.156Z,973.03
2018-04-04T09:52:31.075Z,973.04
2018-04-04T09:53:31.068Z,972.96
2018-04-04T09:54:31.051Z,972.97
2018-04-04T09:55:31.047Z,972.97
2018-04-04T09:56:31.015Z,972.96
2018-04-04T09:57:31.013Z,972.96
2018-04-04T09:58:30.967Z,972.96
2018-04-04T09:59:30.938Z,972.96
2018-04-04T10:00:30.924Z,972.97
2018-04-04T10:01:30.882Z,972.97
2018-04-04T10:02:30.900Z,972.94
2018-04-04T10:03:30.839Z,973.01
2018-04-04T10:04:31.448Z,972.92
2018-04-04T10:05:30.808Z,972.93
2018-04-04T10:06:30.798Z,972.96
2018-04-04T10:07:30.756Z,972.88
2018-04-04T10:08:30.727Z,972.89
2018-04-04T10:09:30.725Z,972.83
2018-04-04T10:10:30.670Z,972.81
2018-04-04T10:11:30.670Z,972.79
2018-04-04T10:12:30.627Z,972.83
2018-04-04T10:13:30.645Z,972.85
2018-04-04T10:14:30.592Z,972.82
2018-04-04T10:15:30.591Z,972.86
2018-04-04T10:16:30.568Z,972.82
2018-04-04T10:17:30.518Z,972.88
2018-04-04T10:18:30.497Z,972.82
2018-04-04T10:19:30.481Z,972.84
2018-04-04T10:20:30.444Z,972.87
2018-04-04T10:21:30.443Z,972.81
2018-04-04T10:22:30.394Z,972.79
2018-04-04T10:23:30.375Z,972.78
2018-04-04T10:24:30.354Z,972.78
2018-04-04T10:25:30.388Z,972.84
2018-04-04T10:26:30.357Z,972.85
2018-04-04T10:27:30.289Z,972.84
2018-04-04T10:28:30.279Z,972.73
2018-04-04T10:29:30.292Z,972.77
2018-04-04T10:30:30.223Z,972.74
2018-04-04T10:31:30.211Z,972.76
2018-04-04T10:32:30.166Z,972.75
2018-04-04T10:33:30.168Z,972.82
2018-04-04T10:34:30.132Z,972.83
2018-04-04T10:35:30.077Z,972.82
2018-04-04T10:36:30.075Z,972.78
2018-04-04T10:37:30.031Z,972.83
2018-04-04T10:38:30.082Z,972.81
2018-04-04T10:39:29.994Z,972.80
2018-04-04T10:40:29.990Z,972.84
2018-04-04T10:41:29.965Z,972.76
2018-04-04T10:42:29.903Z,972.84
2018-04-04T10:43:29.905Z,972.79
2018-04-04T10:44:29.848Z,972.78
2018-04-04T10:45:29.814Z,972.78
2018-04-04T10:46:29.811Z,972.77
2018-04-04T10:47:29.779Z,972.76
2018-04-04T10:48:29.753Z,972.79
2018-04-04T10:49:29.712Z,972.80
2018-04-04T10:50:29.761Z,972.79
2018-04-04T10:51:29.673Z,972.76
2018-04-04T10:52:29.644Z,972.76
2018-04-04T10:53:29.598Z,972.78
2018-04-04T10:54:29.585Z,972.76
2018-04-04T10:55:29.567Z,972.72
2018-04-04T10:56:29.570Z,972.76
2018-04-04T10:57:29.519Z,972.79
2018-04-04T10:58:29.492Z,972.80
2018-04-04T10:59:29.467Z,972.80
2018-04-04T11:00:29.434Z,972.73
2018-04-04T11:01:29.399Z,972.70
2018-04-04T11:02:29.377Z,972.72
2018-04-04T11:03:29.339Z,972.65
2018-04-04T11:04:29.314Z,972.65
2018-04-04T11:05:29.290Z,972.66
2018-04-04T11:06:29.254Z,972.61
2018-04-04T11:07:29.234Z,972.58
2018-04-04T11:08:29.207Z,972.59
2018-04-04T11:09:29.186Z,972.55
2018-04-04T11:10:29.192Z,972.59
2018-04-04T11:11:29.110Z,972.59
2018-04-04T11:12:29.101Z,972.58
2018-04-04T11:13:29.051Z,972.56
2018-04-04T11:14:29.022Z,972.52
2018-04-04T11:15:29.002Z,972.54
2018-04-04T11:16:28.983Z,972.53
2018-04-04T11:17:28.935Z,972.53
2018-04-04T11:18:28.921Z,972.50
2018-04-04T11:19:28.916Z,972.48
2018-04-04T11:20:28.890Z,972.44
2018-04-04T11:21:28.832Z,972.40
2018-04-04T11:22:28.797Z,972.36
2018-04-04T11:23:28.800Z,972.33
2018-04-04T11:24:28.761Z,972.31
2018-04-04T11:25:28.721Z,972.33
2018-04-04T11:26:28.723Z,972.35
2018-04-04T11:27:28.677Z,972.34
2018-04-04T11:28:28.660Z,972.31
2018-04-04T11:29:28.600Z,972.28
2018-04-04T11:30:28.632Z,972.29
2018-04-04T11:31:28.594Z,972.26
2018-04-04T11:32:28.511Z,972.24
2018-04-04T11:33:28.520Z,972.21
2018-04-04T11:34:28.493Z,972.15
2018-04-04T11:35:28.433Z,972.14
2018-04-04T11:36:28.430Z,972.08
2018-04-04T11:37:28.380Z,972.11
2018-04-04T11:38:28.380Z,972.13
2018-04-04T11:39:28.332Z,972.08
2018-04-04T11:40:28.337Z,972.08
2018-04-04T11:41:28.303Z,972.04
2018-04-04T11:42:28.250Z,972.04
2018-04-04T11:43:28.223Z,972.06
2018-04-04T11:44:28.187Z,972.02
2018-04-04T11:45:28.193Z,972.01
2018-04-04T11:46:28.133Z,972.02
2018-04-04T11:47:28.130Z,972.01
2018-04-04T11:48:28.113Z,972.03
2018-04-04T11:49:28.084Z,972.03
2018-04-04T11:50:28.032Z,972.05
2018-04-04T11:51:28.015Z,972.10
2018-04-04T11:52:27.978Z,972.14
2018-04-04T11:53:27.947Z,972.06
2018-04-04T11:54:27.940Z,972.04
2018-04-04T11:55:27.894Z,972.00
2018-04-04T11:56:27.871Z,972.03
2018-04-04T11:57:27.902Z,971.98
2018-04-04T11:58:27.828Z,971.97
2018-04-04T11:59:27.836Z,971.95
2018-04-04T12:00:27.785Z,971.97
2018-04-04T12:01:27.770Z,971.94
2018-04-04T12:02:27.765Z,971.86
2018-04-04T12:03:27.708Z,971.90
2018-04-04T12:04:27.869Z,971.93
2018-04-04T12:05:27.703Z,971.93
2018-04-04T12:06:27.660Z,971.94
2018-04-04T12:07:27.620Z,971.99
2018-04-04T12:08:27.611Z,971.93
2018-04-04T12:09:27.586Z,971.90
2018-04-04T12:10:27.565Z,971.88
2018-04-04T12:11:27.543Z,971.93
2018-04-04T12:12:27.518Z,971.93
2018-04-04T12:13:27.483Z,971.96
2018-04-04T12:14:27.471Z,971.92
2018-04-04T12:15:27.466Z,971.93
2018-04-04T12:16:27.427Z,971.85
2018-04-04T12:17:27.404Z,971.82
2018-04-04T12:18:27.384Z,971.83
2018-04-04T12:19:27.396Z,971.79
2018-04-04T12:20:27.339Z,971.79
2018-04-04T12:21:27.326Z,971.74
2018-04-04T12:22:27.324Z,971.69
2018-04-04T12:23:27.267Z,971.63
2018-04-04T12:24:27.258Z,971.51
2018-04-04T12:25:27.255Z,971.62
2018-04-04T12:26:27.242Z,971.67
2018-04-04T12:27:27.202Z,971.61
2018-04-04T12:28:27.171Z,971.60
2018-04-04T12:29:27.176Z,971.50
2018-04-04T12:30:27.119Z,971.50
2018-04-04T12:31:27.089Z,971.44
2018-04-04T12:32:27.098Z,971.44
2018-04-04T12:33:27.054Z,971.39
2018-04-04T12:34:27.041Z,971.47
2018-04-04T12:35:27.025Z,971.45